createdAt,value
2022-12-16T00:00:36.331Z,22.43
2022-12-16T00:03:24.851Z,22.23
2022-12-16T00:06:13.421Z,23.73
2022-12-16T00:09:02.531Z,21.53
2022-12-16T00:11:51.174Z,22.30
2022-12-16T00:14:40.257Z,22.60
2022-12-16T00:17:30.239Z,21.70
2022-12-16T00:20:18.700Z,23.47
2022-12-16T00:23:07.460Z,23.43
2022-12-16T00:25:56.238Z,24.27
2022-12-16T00:28:44.712Z,21.80
2022-12-16T00:31:33.493Z,21.07
2022-12-16T00:34:23.484Z,23.33
2022-12-16T00:37:13.322Z,22.07
2022-12-16T00:40:01.759Z,23.03
2022-12-16T00:42:50.337Z,20.17
2022-12-16T00:45:41.065Z,22.87
2022-12-16T00:48:29.602Z,22.40
2022-12-16T00:51:19.419Z,22.07
2022-12-16T00:54:07.910Z,20.80
2022-12-16T00:56:56.398Z,21.03
2022-12-16T00:59:44.867Z,21.07
2022-12-16T01:02:33.426Z,22.67
2022-12-16T01:05:26.903Z,22.33
2022-12-16T01:08:17.186Z,22.27
2022-12-16T01:11:06.255Z,23.30
2022-12-16T01:13:55.239Z,22.27
2022-12-16T01:16:43.888Z,21.47
2022-12-16T01:19:32.399Z,24.47
2022-12-16T01:22:21.912Z,21.50
2022-12-16T01:25:13.836Z,22.40
2022-12-16T01:28:02.433Z,22.90
2022-12-16T01:30:50.891Z,23.20
2022-12-16T01:33:39.485Z,22.93
2022-12-16T01:36:28.177Z,25.13
2022-12-16T01:39:16.615Z,25.33
2022-12-16T01:42:07.058Z,23.13
2022-12-16T01:44:55.559Z,25.13
2022-12-16T01:47:44.052Z,23.50
2022-12-16T01:50:32.988Z,23.30
2022-12-16T01:53:21.589Z,23.17
2022-12-16T01:56:11.816Z,23.17
2022-12-16T01:59:01.974Z,22.40
2022-12-16T02:01:50.481Z,23.00
2022-12-16T02:04:59.140Z,22.97
2022-12-16T02:10:44.747Z,22.73
2022-12-16T02:13:39.865Z,23.20
2022-12-16T02:16:34.321Z,21.70
2022-12-16T02:19:56.177Z,22.60
2022-12-16T02:22:54.036Z,23.73
2022-12-16T02:25:58.702Z,25.00
2022-12-16T02:29:01.073Z,23.87
2022-12-16T02:31:55.293Z,21.70
2022-12-16T02:34:50.531Z,23.00
2022-12-16T02:37:42.269Z,22.90
2022-12-16T02:40:35.624Z,22.97
2022-12-16T02:43:45.621Z,23.57
2022-12-16T02:46:35.202Z,23.77
2022-12-16T02:49:47.128Z,23.13
2022-12-16T02:52:36.188Z,24.53
2022-12-16T02:55:29.281Z,21.47
2022-12-16T02:58:20.096Z,23.07
2022-12-16T03:01:14.317Z,23.60
2022-12-16T03:04:05.795Z,22.20
2022-12-16T03:06:56.225Z,25.83
2022-12-16T03:09:45.503Z,23.63
2022-12-16T03:12:35.171Z,22.20
2022-12-16T03:15:25.454Z,22.93
2022-12-16T03:18:15.068Z,19.90
2022-12-16T03:21:06.964Z,23.17
2022-12-16T03:23:59.843Z,21.57
2022-12-16T03:26:54.053Z,18.93
2022-12-16T03:29:46.647Z,21.57
2022-12-16T03:32:39.078Z,20.97
2022-12-16T03:35:31.014Z,19.97
2022-12-16T03:38:21.721Z,20.37
2022-12-16T03:41:12.102Z,19.90
2022-12-16T03:44:00.659Z,21.10
2022-12-16T03:46:49.171Z,20.53
2022-12-16T03:49:38.172Z,20.17
2022-12-16T03:52:26.643Z,20.77
2022-12-16T03:55:15.337Z,19.30
2022-12-16T03:58:05.431Z,18.27
2022-12-16T04:00:53.969Z,19.77
2022-12-16T04:03:43.983Z,20.53
2022-12-16T04:06:32.568Z,21.67
2022-12-16T04:09:20.986Z,18.10
2022-12-16T04:12:27.085Z,18.67
2022-12-16T04:15:33.698Z,21.37
2022-12-16T04:18:39.718Z,18.77
2022-12-16T04:21:45.843Z,20.07
2022-12-16T04:24:34.595Z,20.50
2022-12-16T04:27:27.448Z,19.37
2022-12-16T04:30:21.676Z,18.47
2022-12-16T04:33:29.975Z,18.17
2022-12-16T04:36:35.983Z,18.17
2022-12-16T04:39:41.879Z,17.70
2022-12-16T04:42:48.174Z,18.63
2022-12-16T04:45:57.419Z,18.83
2022-12-16T04:49:03.360Z,17.80
2022-12-16T04:52:09.610Z,17.00
2022-12-16T04:55:15.736Z,19.07
2022-12-16T04:58:22.526Z,18.03
2022-12-16T05:01:30.062Z,15.87
2022-12-16T05:04:36.087Z,17.90
2022-12-16T05:07:42.285Z,18.00
2022-12-16T05:10:48.338Z,18.77
2022-12-16T05:13:54.381Z,16.90
2022-12-16T05:17:01.663Z,18.40
2022-12-16T05:20:07.713Z,17.63
2022-12-16T05:23:14.332Z,19.23
2022-12-16T05:26:20.386Z,19.97
2022-12-16T05:29:26.636Z,19.50
2022-12-16T05:32:33.869Z,17.37
2022-12-16T05:35:40.014Z,16.70
2022-12-16T05:38:46.014Z,16.70
2022-12-16T05:41:52.293Z,17.53
2022-12-16T05:44:58.544Z,17.10
2022-12-16T05:48:08.002Z,18.07
2022-12-16T05:51:14.128Z,17.40
2022-12-16T05:54:20.291Z,15.90
2022-12-16T05:57:26.469Z,17.47
2022-12-16T06:00:33.680Z,17.97
2022-12-16T06:03:41.296Z,18.07
2022-12-16T06:06:47.377Z,18.63
2022-12-16T06:09:56.850Z,17.57
2022-12-16T06:13:05.349Z,17.13
2022-12-16T06:16:11.480Z,17.73
2022-12-16T06:19:19.771Z,18.37
2022-12-16T06:22:25.634Z,17.07
2022-12-16T06:25:31.851Z,16.93
2022-12-16T06:28:40.928Z,16.90
2022-12-16T06:31:49.075Z,16.80
2022-12-16T06:34:58.789Z,17.53
2022-12-16T06:38:05.900Z,15.83
2022-12-16T06:41:12.126Z,17.30
2022-12-16T06:44:18.255Z,16.73
2022-12-16T06:47:24.436Z,18.30
2022-12-16T06:50:31.868Z,17.17
2022-12-16T06:53:38.095Z,16.73
2022-12-16T06:56:44.186Z,16.87
2022-12-16T06:59:50.272Z,15.90
2022-12-16T07:02:56.288Z,16.60
2022-12-16T07:06:03.516Z,18.20
2022-12-16T07:09:09.490Z,17.30
2022-12-16T07:12:15.584Z,16.30
2022-12-16T07:15:21.828Z,16.47
2022-12-16T07:18:28.119Z,16.70
2022-12-16T07:21:35.599Z,17.07
2022-12-16T07:24:41.811Z,17.90
2022-12-16T07:27:47.915Z,19.90
2022-12-16T07:30:54.104Z,21.27
2022-12-16T07:34:00.115Z,20.30
2022-12-16T07:37:07.546Z,20.77
2022-12-16T07:40:13.683Z,18.97
2022-12-16T07:43:19.656Z,19.33
2022-12-16T07:46:25.730Z,21.10
2022-12-16T07:49:31.605Z,21.53
2022-12-16T07:52:39.096Z,19.83
2022-12-16T07:55:45.236Z,19.30
2022-12-16T07:58:56.736Z,20.90
2022-12-16T08:02:02.980Z,21.30
2022-12-16T08:05:08.983Z,20.10
2022-12-16T08:08:12.750Z,21.30
2022-12-16T08:11:19.053Z,20.43
2022-12-16T08:14:24.932Z,18.97
2022-12-16T08:17:30.663Z,18.93
2022-12-16T08:20:36.569Z,19.60
2022-12-16T08:23:43.954Z,18.20
2022-12-16T08:26:49.942Z,17.53
2022-12-16T08:29:57.134Z,17.67
2022-12-16T08:33:13.485Z,19.77
2022-12-16T08:36:25.435Z,18.70
2022-12-16T08:39:32.768Z,20.13
2022-12-16T08:42:38.872Z,19.17
2022-12-16T08:45:45.135Z,22.57
2022-12-16T08:48:51.442Z,22.10
2022-12-16T08:51:57.421Z,22.63
2022-12-16T08:55:04.873Z,17.70
2022-12-16T08:58:10.625Z,18.07
2022-12-16T09:01:16.888Z,17.23
2022-12-16T09:04:22.787Z,19.13
2022-12-16T09:07:28.916Z,18.17
2022-12-16T09:10:40.423Z,20.73
2022-12-16T09:13:46.914Z,20.60
2022-12-16T09:16:52.948Z,22.93
2022-12-16T09:19:59.447Z,21.10
2022-12-16T09:23:05.407Z,22.07
2022-12-16T09:26:12.734Z,22.33
2022-12-16T09:29:18.569Z,23.83
2022-12-16T09:32:24.535Z,21.23
2022-12-16T09:35:30.741Z,22.13
2022-12-16T09:38:36.910Z,21.00
2022-12-16T09:41:55.585Z,22.07
2022-12-16T09:45:09.926Z,22.07
2022-12-16T09:48:23.202Z,21.37
2022-12-16T09:51:38.702Z,20.47
2022-12-16T09:54:46.975Z,19.53
2022-12-16T09:57:55.567Z,21.10
2022-12-16T10:01:01.871Z,20.10
2022-12-16T10:04:08.278Z,20.00
2022-12-16T10:07:17.806Z,18.47
2022-12-16T10:10:35.614Z,20.27
2022-12-16T10:13:50.526Z,22.47
2022-12-16T10:17:03.473Z,19.70
2022-12-16T10:20:13.998Z,19.70
2022-12-16T10:23:23.781Z,20.00
2022-12-16T10:26:34.838Z,20.73
2022-12-16T10:29:46.249Z,19.00
2022-12-16T10:32:56.976Z,18.80
2022-12-16T10:36:06.190Z,23.33
2022-12-16T10:39:16.806Z,19.87
2022-12-16T10:42:23.836Z,22.57
2022-12-16T10:45:38.048Z,20.47
2022-12-16T10:48:56.296Z,20.50
2022-12-16T10:52:06.891Z,19.23
2022-12-16T10:55:21.320Z,18.40
2022-12-16T10:58:36.818Z,18.40
2022-12-16T11:01:46.054Z,18.60
2022-12-16T11:04:55.557Z,19.80
2022-12-16T11:08:11.787Z,18.40
2022-12-16T11:11:31.572Z,17.87
2022-12-16T11:14:50.296Z,19.03
2022-12-16T11:18:23.122Z,18.57
2022-12-16T11:21:32.342Z,18.67
2022-12-16T11:24:39.357Z,17.90
2022-12-16T11:27:45.954Z,19.80
2022-12-16T11:30:52.217Z,20.30
2022-12-16T11:34:00.948Z,20.00
2022-12-16T11:37:09.367Z,19.10
2022-12-16T11:40:17.162Z,20.77
2022-12-16T11:43:24.024Z,20.10
2022-12-16T11:46:43.845Z,21.07
2022-12-16T11:49:52.241Z,20.33
2022-12-16T11:52:58.812Z,18.93
2022-12-16T11:56:13.924Z,20.30
2022-12-16T11:59:26.898Z,18.27
2022-12-16T12:02:35.807Z,18.63
2022-12-16T12:05:47.310Z,19.10
2022-12-16T12:08:57.793Z,19.70
2022-12-16T12:12:10.042Z,19.73
2022-12-16T12:15:20.251Z,18.77
2022-12-16T12:18:34.666Z,18.83
2022-12-16T12:21:43.870Z,17.67
2022-12-16T12:24:57.947Z,18.27
2022-12-16T12:28:12.262Z,19.37
2022-12-16T12:31:22.448Z,20.07
2022-12-16T12:34:32.958Z,18.17
2022-12-16T12:37:44.931Z,16.33
2022-12-16T12:40:59.931Z,16.30
2022-12-16T12:44:14.182Z,15.87
2022-12-16T12:47:23.514Z,20.53
2022-12-16T12:50:32.599Z,21.10
2022-12-16T12:53:46.963Z,17.80
2022-12-16T12:57:01.400Z,17.87
2022-12-16T13:00:13.164Z,17.67
2022-12-16T13:03:23.678Z,16.30
2022-12-16T13:06:32.449Z,16.53
2022-12-16T13:09:45.243Z,16.70
2022-12-16T13:12:52.392Z,17.67
2022-12-16T13:15:58.656Z,16.23
2022-12-16T13:19:08.047Z,16.37
2022-12-16T13:22:15.495Z,15.70
2022-12-16T13:25:54.795Z,16.93
2022-12-16T13:29:01.541Z,17.97
2022-12-16T13:32:19.178Z,17.20
2022-12-16T13:35:35.950Z,17.17
2022-12-16T13:38:42.159Z,18.57
2022-12-16T13:42:10.291Z,15.53
2022-12-16T13:45:17.383Z,17.17
2022-12-16T13:48:35.190Z,16.57
2022-12-16T13:52:15.652Z,17.30
2022-12-16T13:55:32.204Z,16.43
2022-12-16T13:58:56.938Z,16.70
2022-12-16T14:02:08.789Z,17.40
2022-12-16T14:05:15.328Z,16.10
2022-12-16T14:08:23.047Z,18.13
2022-12-16T14:11:36.028Z,15.23
2022-12-16T14:14:45.902Z,14.90
2022-12-16T14:17:56.563Z,16.90
2022-12-16T14:21:03.910Z,17.20
2022-12-16T14:24:12.513Z,17.57
2022-12-16T14:27:24.274Z,16.10
2022-12-16T14:30:36.856Z,16.60
2022-12-16T14:33:44.577Z,16.40
2022-12-16T14:37:12.059Z,15.83
2022-12-16T14:40:18.034Z,15.30
2022-12-16T14:43:30.989Z,15.63
2022-12-16T14:46:45.179Z,16.03
2022-12-16T14:49:52.085Z,15.90
2022-12-16T14:52:58.482Z,14.20
2022-12-16T14:56:04.469Z,16.77
2022-12-16T14:59:25.684Z,16.00
2022-12-16T15:02:49.719Z,15.60
2022-12-16T15:05:56.925Z,16.20
2022-12-16T15:09:07.246Z,18.57
2022-12-16T15:12:13.928Z,15.87
2022-12-16T15:15:23.238Z,15.97
2022-12-16T15:18:34.590Z,16.30
2022-12-16T15:21:40.575Z,15.20
2022-12-16T15:24:47.481Z,15.23
2022-12-16T15:27:54.513Z,17.27
2022-12-16T15:31:02.643Z,19.10
2022-12-16T15:34:40.061Z,15.93
2022-12-16T15:37:49.632Z,17.30
2022-12-16T15:40:57.753Z,18.47
2022-12-16T15:44:04.904Z,16.77
2022-12-16T15:47:10.961Z,16.70
2022-12-16T15:50:21.353Z,15.67
2022-12-16T15:53:34.839Z,17.27
2022-12-16T15:56:42.372Z,17.43
2022-12-16T15:59:49.653Z,15.00
2022-12-16T16:02:55.689Z,15.17
2022-12-16T16:06:03.305Z,17.63
2022-12-16T16:09:10.040Z,19.90
2022-12-16T16:12:16.225Z,19.20
2022-12-16T16:15:24.539Z,21.80
2022-12-16T16:18:30.652Z,20.17
2022-12-16T16:21:38.662Z,19.27
2022-12-16T16:24:45.061Z,17.50
2022-12-16T16:27:51.335Z,18.00
2022-12-16T16:30:59.729Z,17.73
2022-12-16T16:34:05.790Z,15.60
2022-12-16T16:37:14.660Z,18.87
2022-12-16T16:40:23.849Z,15.80
2022-12-16T16:43:30.038Z,16.20
2022-12-16T16:46:49.821Z,17.10
2022-12-16T16:49:58.895Z,15.33
2022-12-16T16:53:06.397Z,16.90
2022-12-16T16:56:18.081Z,16.93
2022-12-16T16:59:27.675Z,16.20
2022-12-16T17:02:40.826Z,17.17
2022-12-16T17:05:47.567Z,17.33
2022-12-16T17:08:55.271Z,17.30
2022-12-16T17:12:01.333Z,17.13
2022-12-16T17:15:07.466Z,19.10
2022-12-16T17:18:13.838Z,19.57
2022-12-16T17:21:20.082Z,21.10
2022-12-16T17:24:27.618Z,19.93
2022-12-16T17:27:34.913Z,18.73
2022-12-16T17:30:46.838Z,18.07
2022-12-16T17:33:53.894Z,19.20
2022-12-16T17:37:00.087Z,19.40
2022-12-16T17:40:15.909Z,19.13
2022-12-16T17:43:22.117Z,18.93
2022-12-16T17:46:29.864Z,17.00
2022-12-16T17:49:36.102Z,16.73
2022-12-16T17:52:42.194Z,16.67
2022-12-16T17:55:49.651Z,18.90
2022-12-16T17:58:56.701Z,17.93
2022-12-16T18:02:03.220Z,17.60
2022-12-16T18:05:09.235Z,17.40
2022-12-16T18:08:15.283Z,18.50
2022-12-16T18:11:22.882Z,16.87
2022-12-16T18:14:28.389Z,17.50
2022-12-16T18:17:34.526Z,16.67
2022-12-16T18:20:40.604Z,18.23
2022-12-16T18:23:48.224Z,17.60
2022-12-16T18:26:55.713Z,16.87
2022-12-16T18:30:07.442Z,19.60
2022-12-16T18:33:13.779Z,19.30
2022-12-16T18:36:19.615Z,20.13
2022-12-16T18:39:25.719Z,19.10
2022-12-16T18:42:33.313Z,18.00
2022-12-16T18:45:39.426Z,19.20
2022-12-16T18:48:45.342Z,19.80
2022-12-16T18:51:52.522Z,19.00
2022-12-16T18:54:58.742Z,17.80
2022-12-16T18:58:20.852Z,19.90
2022-12-16T19:01:32.126Z,21.40
2022-12-16T19:04:38.271Z,19.07
2022-12-16T19:07:44.413Z,20.40
2022-12-16T19:10:50.555Z,18.93
2022-12-16T19:13:58.144Z,19.23
2022-12-16T19:17:03.993Z,17.37
2022-12-16T19:20:10.126Z,18.30
2022-12-16T19:23:16.238Z,18.33
2022-12-16T19:26:22.421Z,19.13
2022-12-16T19:29:29.862Z,22.97
2022-12-16T19:32:36.285Z,20.30
2022-12-16T19:35:42.225Z,20.80
2022-12-16T19:38:50.721Z,21.33
2022-12-16T19:41:56.896Z,20.60
2022-12-16T19:45:04.014Z,18.17
2022-12-16T19:48:10.280Z,20.77
2022-12-16T19:51:16.511Z,20.17
2022-12-16T19:54:22.781Z,21.50
2022-12-16T19:57:28.980Z,19.70
2022-12-16T20:00:36.751Z,19.43
2022-12-16T20:03:42.985Z,20.03
2022-12-16T20:06:49.492Z,21.20
2022-12-16T20:09:56.094Z,18.90
2022-12-16T20:13:02.293Z,19.17
2022-12-16T20:16:09.755Z,20.23
2022-12-16T20:19:16.475Z,19.67
2022-12-16T20:22:22.599Z,19.90
2022-12-16T20:25:28.878Z,20.27
2022-12-16T20:28:35.040Z,20.30
2022-12-16T20:31:42.578Z,21.83
2022-12-16T20:34:48.821Z,18.90
2022-12-16T20:41:22.370Z,17.90
2022-12-16T20:44:28.615Z,20.70
2022-12-16T20:47:36.195Z,17.60
2022-12-16T20:50:42.375Z,20.90
2022-12-16T20:53:48.608Z,19.90
2022-12-16T20:56:54.869Z,19.80
2022-12-16T21:00:02.068Z,20.83
2022-12-16T21:03:09.361Z,20.50
2022-12-16T21:06:15.582Z,21.20
2022-12-16T21:09:21.679Z,18.60
2022-12-16T21:12:27.715Z,20.00
2022-12-16T21:15:33.831Z,20.67
2022-12-16T21:18:41.750Z,22.83
2022-12-16T21:21:47.927Z,20.13
2022-12-16T21:24:54.214Z,19.00
2022-12-16T21:28:02.218Z,23.27
2022-12-16T21:31:08.177Z,22.17
2022-12-16T21:34:15.617Z,21.73
2022-12-16T21:37:21.659Z,21.47
2022-12-16T21:40:28.634Z,23.30
2022-12-16T21:43:34.736Z,28.93
2022-12-16T21:46:40.825Z,22.63
2022-12-16T21:49:48.351Z,28.93
2022-12-16T21:52:54.429Z,23.17
2022-12-16T21:56:02.704Z,21.20
2022-12-16T21:59:20.146Z,19.57
2022-12-16T22:02:29.009Z,19.60
2022-12-16T22:05:36.457Z,20.13
2022-12-16T22:08:42.576Z,20.90
2022-12-16T22:11:48.682Z,20.27
2022-12-16T22:14:54.782Z,20.03
2022-12-16T22:18:01.952Z,22.90
2022-12-16T22:21:16.575Z,23.97
2022-12-16T22:24:22.651Z,23.53
2022-12-16T22:27:28.743Z,23.73
2022-12-16T22:30:34.902Z,24.60
2022-12-16T22:33:40.721Z,25.90
2022-12-16T22:36:21.269Z,20.37
2022-12-16T22:36:48.116Z,27.00
2022-12-16T22:39:59.437Z,28.07
2022-12-16T22:43:06.657Z,25.63
2022-12-16T22:46:20.377Z,24.37
2022-12-16T22:49:26.319Z,22.97
2022-12-16T22:52:33.572Z,22.27
2022-12-16T22:55:39.709Z,24.77
2022-12-16T22:58:45.885Z,21.93
2022-12-16T23:01:51.984Z,21.90
2022-12-16T23:04:57.357Z,22.53
2022-12-16T23:08:04.754Z,22.90
2022-12-16T23:11:13.987Z,23.40
2022-12-16T23:14:20.022Z,26.73
2022-12-16T23:17:25.295Z,25.03
2022-12-16T23:20:31.373Z,22.73
2022-12-16T23:23:39.086Z,26.10
2022-12-16T23:26:45.352Z,24.70
2022-12-16T23:29:59.803Z,23.00
2022-12-16T23:33:05.758Z,22.40
2022-12-16T23:36:11.776Z,25.00
2022-12-16T23:39:19.019Z,24.33
2022-12-16T23:42:24.929Z,24.30
2022-12-16T23:45:31.113Z,23.53
2022-12-16T23:48:37.598Z,24.20
2022-12-16T23:51:43.902Z,24.70
2022-12-16T23:54:51.485Z,25.70
2022-12-16T23:57:57.946Z,23.40
